sensor_id;sensor_type;location;lat;lon;timestamp;P1;durP1;ratioP1;P2;durP2;ratioP2
61785;SDS011;47692;53.714;11.372;2023-05-07T00:01:41;15.25;;;10.38;;
61785;SDS011;47692;53.714;11.372;2023-05-07T00:04:06;14.60;;;9.80;;
61785;SDS011;47692;53.714;11.372;2023-05-07T00:06:32;16.88;;;10.15;;
61785;SDS011;47692;53.714;11.372;2023-05-07T00:08:58;15.50;;;9.10;;
61785;SDS011;47692;53.714;11.372;2023-05-07T00:11:25;17.42;;;10.02;;
61785;SDS011;47692;53.714;11.372;2023-05-07T00:13:51;15.25;;;10.05;;
61785;SDS011;47692;53.714;11.372;2023-05-07T00:16:16;18.52;;;10.57;;
61785;SDS011;47692;53.714;11.372;2023-05-07T00:18:42;13.95;;;9.32;;
61785;SDS011;47692;53.714;11.372;2023-05-07T00:21:07;15.77;;;10.05;;
61785;SDS011;47692;53.714;11.372;2023-05-07T00:23:32;16.02;;;10.45;;
61785;SDS011;47692;53.714;11.372;2023-05-07T00:25:58;16.33;;;9.60;;
61785;SDS011;47692;53.714;11.372;2023-05-07T00:28:23;16.10;;;10.68;;
61785;SDS011;47692;53.714;11.372;2023-05-07T00:30:48;16.08;;;11.30;;
61785;SDS011;47692;53.714;11.372;2023-05-07T00:33:14;19.20;;;10.70;;
61785;SDS011;47692;53.714;11.372;2023-05-07T00:35:39;17.27;;;10.30;;
61785;SDS011;47692;53.714;11.372;2023-05-07T00:38:05;18.08;;;10.70;;
61785;SDS011;47692;53.714;11.372;2023-05-07T00:40:30;20.20;;;11.30;;
61785;SDS011;47692;53.714;11.372;2023-05-07T00:42:55;18.10;;;11.18;;
61785;SDS011;47692;53.714;11.372;2023-05-07T00:45:23;17.65;;;10.70;;
61785;SDS011;47692;53.714;11.372;2023-05-07T00:47:53;16.42;;;10.98;;
61785;SDS011;47692;53.714;11.372;2023-05-07T00:50:20;17.88;;;11.13;;
61785;SDS011;47692;53.714;11.372;2023-05-07T00:52:45;17.30;;;10.90;;
61785;SDS011;47692;53.714;11.372;2023-05-07T00:55:11;15.90;;;10.13;;
61785;SDS011;47692;53.714;11.372;2023-05-07T00:57:39;17.48;;;10.75;;
61785;SDS011;47692;53.714;11.372;2023-05-07T01:00:06;14.90;;;9.80;;
61785;SDS011;47692;53.714;11.372;2023-05-07T01:02:34;17.67;;;9.95;;
61785;SDS011;47692;53.714;11.372;2023-05-07T01:05:03;15.25;;;9.73;;
61785;SDS011;47692;53.714;11.372;2023-05-07T01:07:31;15.98;;;10.18;;
61785;SDS011;47692;53.714;11.372;2023-05-07T01:09:57;15.50;;;10.00;;
61785;SDS011;47692;53.714;11.372;2023-05-07T01:12:23;15.52;;;10.38;;
61785;SDS011;47692;53.714;11.372;2023-05-07T01:14:50;15.57;;;9.68;;
61785;SDS011;47692;53.714;11.372;2023-05-07T01:17:16;16.65;;;10.68;;
61785;SDS011;47692;53.714;11.372;2023-05-07T01:19:42;13.50;;;8.88;;
61785;SDS011;47692;53.714;11.372;2023-05-07T01:22:08;15.65;;;9.52;;
61785;SDS011;47692;53.714;11.372;2023-05-07T01:24:36;15.90;;;9.07;;
61785;SDS011;47692;53.714;11.372;2023-05-07T01:27:02;14.05;;;9.00;;
61785;SDS011;47692;53.714;11.372;2023-05-07T01:29:28;13.50;;;8.55;;
61785;SDS011;47692;53.714;11.372;2023-05-07T01:31:53;11.80;;;8.38;;
61785;SDS011;47692;53.714;11.372;2023-05-07T01:34:20;12.70;;;8.43;;
61785;SDS011;47692;53.714;11.372;2023-05-07T01:36:47;13.20;;;8.55;;
61785;SDS011;47692;53.714;11.372;2023-05-07T01:39:13;11.70;;;8.07;;
61785;SDS011;47692;53.714;11.372;2023-05-07T01:41:40;13.00;;;8.23;;
61785;SDS011;47692;53.714;11.372;2023-05-07T01:44:07;13.80;;;9.00;;
61785;SDS011;47692;53.714;11.372;2023-05-07T01:46:35;11.18;;;7.55;;
61785;SDS011;47692;53.714;11.372;2023-05-07T01:49:00;11.27;;;7.55;;
61785;SDS011;47692;53.714;11.372;2023-05-07T01:51:26;13.75;;;9.05;;
61785;SDS011;47692;53.714;11.372;2023-05-07T01:53:52;12.95;;;8.27;;
61785;SDS011;47692;53.714;11.372;2023-05-07T01:56:18;12.13;;;8.32;;
61785;SDS011;47692;53.714;11.372;2023-05-07T01:58:44;11.45;;;8.10;;
61785;SDS011;47692;53.714;11.372;2023-05-07T02:01:11;13.32;;;8.73;;
61785;SDS011;47692;53.714;11.372;2023-05-07T02:03:37;12.23;;;8.32;;
61785;SDS011;47692;53.714;11.372;2023-05-07T02:06:03;11.80;;;7.95;;
61785;SDS011;47692;53.714;11.372;2023-05-07T02:08:28;12.15;;;8.27;;
61785;SDS011;47692;53.714;11.372;2023-05-07T02:10:53;13.00;;;8.82;;
61785;SDS011;47692;53.714;11.372;2023-05-07T02:13:19;13.52;;;7.88;;
61785;SDS011;47692;53.714;11.372;2023-05-07T02:15:45;10.90;;;7.85;;
61785;SDS011;47692;53.714;11.372;2023-05-07T02:18:14;14.07;;;8.63;;
61785;SDS011;47692;53.714;11.372;2023-05-07T02:20:40;12.75;;;8.55;;
61785;SDS011;47692;53.714;11.372;2023-05-07T02:23:06;12.65;;;7.75;;
61785;SDS011;47692;53.714;11.372;2023-05-07T02:25:31;12.55;;;8.50;;
61785;SDS011;47692;53.714;11.372;2023-05-07T02:27:56;14.35;;;8.82;;
61785;SDS011;47692;53.714;11.372;2023-05-07T02:30:22;10.93;;;7.25;;
61785;SDS011;47692;53.714;11.372;2023-05-07T02:32:47;13.82;;;8.75;;
61785;SDS011;47692;53.714;11.372;2023-05-07T02:35:13;14.13;;;9.00;;
61785;SDS011;47692;53.714;11.372;2023-05-07T02:37:38;14.40;;;8.70;;
61785;SDS011;47692;53.714;11.372;2023-05-07T02:40:04;13.68;;;9.13;;
61785;SDS011;47692;53.714;11.372;2023-05-07T02:42:30;16.35;;;9.93;;
61785;SDS011;47692;53.714;11.372;2023-05-07T02:44:55;13.73;;;9.57;;
61785;SDS011;47692;53.714;11.372;2023-05-07T02:47:20;15.57;;;9.15;;
61785;SDS011;47692;53.714;11.372;2023-05-07T02:49:46;13.30;;;9.30;;
61785;SDS011;47692;53.714;11.372;2023-05-07T02:52:11;14.48;;;8.73;;
61785;SDS011;47692;53.714;11.372;2023-05-07T02:54:36;16.02;;;8.80;;
61785;SDS011;47692;53.714;11.372;2023-05-07T02:57:02;17.90;;;10.55;;
61785;SDS011;47692;53.714;11.372;2023-05-07T02:59:28;16.25;;;9.02;;
61785;SDS011;47692;53.714;11.372;2023-05-07T03:01:53;15.63;;;9.50;;
61785;SDS011;47692;53.714;11.372;2023-05-07T03:04:19;15.77;;;9.75;;
61785;SDS011;47692;53.714;11.372;2023-05-07T03:06:44;14.85;;;9.38;;
61785;SDS011;47692;53.714;11.372;2023-05-07T03:09:09;14.70;;;9.20;;
61785;SDS011;47692;53.714;11.372;2023-05-07T03:11:35;14.80;;;9.45;;
61785;SDS011;47692;53.714;11.372;2023-05-07T03:14:01;14.27;;;8.77;;
61785;SDS011;47692;53.714;11.372;2023-05-07T03:16:27;14.07;;;9.20;;
61785;SDS011;47692;53.714;11.372;2023-05-07T03:18:52;17.02;;;9.13;;
61785;SDS011;47692;53.714;11.372;2023-05-07T03:21:18;14.93;;;8.90;;
61785;SDS011;47692;53.714;11.372;2023-05-07T03:23:43;14.52;;;8.63;;
61785;SDS011;47692;53.714;11.372;2023-05-07T03:26:08;14.13;;;8.88;;
61785;SDS011;47692;53.714;11.372;2023-05-07T03:28:34;16.10;;;9.00;;
61785;SDS011;47692;53.714;11.372;2023-05-07T03:30:59;15.15;;;8.75;;
61785;SDS011;47692;53.714;11.372;2023-05-07T03:33:25;15.52;;;9.30;;
61785;SDS011;47692;53.714;11.372;2023-05-07T03:35:50;13.38;;;8.07;;
61785;SDS011;47692;53.714;11.372;2023-05-07T03:38:15;11.93;;;8.20;;
61785;SDS011;47692;53.714;11.372;2023-05-07T03:40:41;14.50;;;8.60;;
61785;SDS011;47692;53.714;11.372;2023-05-07T03:43:06;14.07;;;8.60;;
61785;SDS011;47692;53.714;11.372;2023-05-07T03:45:31;14.30;;;8.43;;
61785;SDS011;47692;53.714;11.372;2023-05-07T03:47:57;15.95;;;8.88;;
61785;SDS011;47692;53.714;11.372;2023-05-07T03:50:22;16.38;;;9.23;;
61785;SDS011;47692;53.714;11.372;2023-05-07T03:52:47;14.57;;;9.60;;
61785;SDS011;47692;53.714;11.372;2023-05-07T03:55:13;14.13;;;8.82;;
61785;SDS011;47692;53.714;11.372;2023-05-07T03:57:38;14.20;;;8.65;;
61785;SDS011;47692;53.714;11.372;2023-05-07T04:00:03;16.92;;;9.10;;
61785;SDS011;47692;53.714;11.372;2023-05-07T04:02:30;14.48;;;9.50;;
61785;SDS011;47692;53.714;11.372;2023-05-07T04:04:55;12.38;;;8.38;;
61785;SDS011;47692;53.714;11.372;2023-05-07T04:07:21;12.63;;;8.48;;
61785;SDS011;47692;53.714;11.372;2023-05-07T04:09:47;15.13;;;9.13;;
61785;SDS011;47692;53.714;11.372;2023-05-07T04:12:12;12.57;;;8.48;;
61785;SDS011;47692;53.714;11.372;2023-05-07T04:14:37;15.00;;;9.02;;
61785;SDS011;47692;53.714;11.372;2023-05-07T04:17:03;14.50;;;8.52;;
61785;SDS011;47692;53.714;11.372;2023-05-07T04:19:28;15.43;;;8.10;;
61785;SDS011;47692;53.714;11.372;2023-05-07T04:21:53;13.60;;;8.18;;
61785;SDS011;47692;53.714;11.372;2023-05-07T04:24:19;16.45;;;8.10;;
61785;SDS011;47692;53.714;11.372;2023-05-07T04:26:45;12.15;;;7.78;;
61785;SDS011;47692;53.714;11.372;2023-05-07T04:29:10;14.23;;;8.88;;
61785;SDS011;47692;53.714;11.372;2023-05-07T04:31:36;14.43;;;7.50;;
61785;SDS011;47692;53.714;11.372;2023-05-07T04:34:01;13.10;;;8.02;;
61785;SDS011;47692;53.714;11.372;2023-05-07T04:36:27;13.18;;;7.63;;
61785;SDS011;47692;53.714;11.372;2023-05-07T04:38:52;13.85;;;8.20;;
61785;SDS011;47692;53.714;11.372;2023-05-07T04:41:18;12.13;;;8.15;;
61785;SDS011;47692;53.714;11.372;2023-05-07T04:43:43;13.73;;;8.27;;
61785;SDS011;47692;53.714;11.372;2023-05-07T04:46:09;11.70;;;7.78;;
61785;SDS011;47692;53.714;11.372;2023-05-07T04:48:35;12.40;;;8.18;;
61785;SDS011;47692;53.714;11.372;2023-05-07T04:51:00;12.88;;;7.43;;
61785;SDS011;47692;53.714;11.372;2023-05-07T04:53:25;11.48;;;7.03;;
61785;SDS011;47692;53.714;11.372;2023-05-07T04:55:57;11.93;;;7.97;;
61785;SDS011;47692;53.714;11.372;2023-05-07T05:00:48;12.68;;;6.88;;
61785;SDS011;47692;53.714;11.372;2023-05-07T05:03:14;10.60;;;7.05;;
61785;SDS011;47692;53.714;11.372;2023-05-07T05:05:39;12.80;;;7.45;;
61785;SDS011;47692;53.714;11.372;2023-05-07T05:08:05;13.70;;;6.85;;
61785;SDS011;47692;53.714;11.372;2023-05-07T05:10:30;12.82;;;7.72;;
61785;SDS011;47692;53.714;11.372;2023-05-07T05:12:55;12.55;;;7.00;;
61785;SDS011;47692;53.714;11.372;2023-05-07T05:15:21;13.05;;;8.23;;
61785;SDS011;47692;53.714;11.372;2023-05-07T05:17:46;9.90;;;7.28;;
61785;SDS011;47692;53.714;11.372;2023-05-07T05:20:11;12.20;;;8.02;;
61785;SDS011;47692;53.714;11.372;2023-05-07T05:22:37;12.23;;;7.43;;
61785;SDS011;47692;53.714;11.372;2023-05-07T05:25:03;10.30;;;6.97;;
61785;SDS011;47692;53.714;11.372;2023-05-07T05:27:28;11.90;;;7.75;;
61785;SDS011;47692;53.714;11.372;2023-05-07T05:29:54;11.98;;;8.23;;
61785;SDS011;47692;53.714;11.372;2023-05-07T05:32:20;10.50;;;7.13;;
61785;SDS011;47692;53.714;11.372;2023-05-07T05:34:45;12.20;;;7.43;;
61785;SDS011;47692;53.714;11.372;2023-05-07T05:37:10;10.23;;;7.18;;
61785;SDS011;47692;53.714;11.372;2023-05-07T05:39:36;9.70;;;6.47;;
61785;SDS011;47692;53.714;11.372;2023-05-07T05:42:01;10.68;;;7.63;;
61785;SDS011;47692;53.714;11.372;2023-05-07T05:44:27;12.15;;;7.20;;
61785;SDS011;47692;53.714;11.372;2023-05-07T05:46:52;10.38;;;7.13;;
61785;SDS011;47692;53.714;11.372;2023-05-07T05:49:20;9.07;;;6.68;;
61785;SDS011;47692;53.714;11.372;2023-05-07T05:51:45;10.32;;;6.18;;
61785;SDS011;47692;53.714;11.372;2023-05-07T05:54:10;10.32;;;7.18;;
61785;SDS011;47692;53.714;11.372;2023-05-07T05:56:36;12.98;;;6.63;;
61785;SDS011;47692;53.714;11.372;2023-05-07T05:59:02;9.90;;;6.70;;
61785;SDS011;47692;53.714;11.372;2023-05-07T06:01:27;9.48;;;6.47;;
61785;SDS011;47692;53.714;11.372;2023-05-07T06:03:53;11.32;;;6.88;;
61785;SDS011;47692;53.714;11.372;2023-05-07T06:06:18;10.23;;;6.43;;
61785;SDS011;47692;53.714;11.372;2023-05-07T06:08:43;9.00;;;6.30;;
61785;SDS011;47692;53.714;11.372;2023-05-07T06:11:09;9.18;;;6.18;;
61785;SDS011;47692;53.714;11.372;2023-05-07T06:13:34;7.80;;;5.85;;
61785;SDS011;47692;53.714;11.372;2023-05-07T06:15:59;8.07;;;5.90;;
61785;SDS011;47692;53.714;11.372;2023-05-07T06:18:25;10.25;;;6.38;;
61785;SDS011;47692;53.714;11.372;2023-05-07T06:20:51;9.18;;;6.22;;
61785;SDS011;47692;53.714;11.372;2023-05-07T06:23:16;10.55;;;6.20;;
61785;SDS011;47692;53.714;11.372;2023-05-07T06:25:42;10.30;;;5.90;;
61785;SDS011;47692;53.714;11.372;2023-05-07T06:28:07;9.10;;;5.75;;
61785;SDS011;47692;53.714;11.372;2023-05-07T06:30:34;9.20;;;6.30;;
61785;SDS011;47692;53.714;11.372;2023-05-07T06:32:59;10.68;;;6.25;;
61785;SDS011;47692;53.714;11.372;2023-05-07T06:35:25;11.45;;;6.63;;
61785;SDS011;47692;53.714;11.372;2023-05-07T06:37:50;12.15;;;6.97;;
61785;SDS011;47692;53.714;11.372;2023-05-07T06:40:15;10.32;;;6.80;;
61785;SDS011;47692;53.714;11.372;2023-05-07T06:42:41;11.50;;;7.05;;
61785;SDS011;47692;53.714;11.372;2023-05-07T06:45:07;12.00;;;7.00;;
61785;SDS011;47692;53.714;11.372;2023-05-07T06:47:33;12.52;;;7.43;;
61785;SDS011;47692;53.714;11.372;2023-05-07T06:49:58;11.93;;;6.97;;
61785;SDS011;47692;53.714;11.372;2023-05-07T06:52:24;9.85;;;6.88;;
61785;SDS011;47692;53.714;11.372;2023-05-07T06:54:49;9.80;;;6.22;;
61785;SDS011;47692;53.714;11.372;2023-05-07T06:57:15;11.60;;;6.80;;
61785;SDS011;47692;53.714;11.372;2023-05-07T06:59:40;10.68;;;6.43;;
61785;SDS011;47692;53.714;11.372;2023-05-07T07:02:05;9.32;;;6.30;;
61785;SDS011;47692;53.714;11.372;2023-05-07T07:04:31;8.35;;;6.00;;
61785;SDS011;47692;53.714;11.372;2023-05-07T07:06:56;8.45;;;6.18;;
61785;SDS011;47692;53.714;11.372;2023-05-07T07:09:21;9.05;;;6.88;;
61785;SDS011;47692;53.714;11.372;2023-05-07T07:11:47;10.18;;;6.63;;
61785;SDS011;47692;53.714;11.372;2023-05-07T07:14:12;9.43;;;7.18;;
61785;SDS011;47692;53.714;11.372;2023-05-07T07:16:38;11.52;;;7.30;;
61785;SDS011;47692;53.714;11.372;2023-05-07T07:19:03;8.88;;;6.47;;
61785;SDS011;47692;53.714;11.372;2023-05-07T07:21:28;11.43;;;6.72;;
61785;SDS011;47692;53.714;11.372;2023-05-07T07:23:54;9.05;;;6.30;;
61785;SDS011;47692;53.714;11.372;2023-05-07T07:26:20;8.57;;;6.38;;
61785;SDS011;47692;53.714;11.372;2023-05-07T07:28:45;9.05;;;6.50;;
61785;SDS011;47692;53.714;11.372;2023-05-07T07:31:11;10.30;;;6.63;;
61785;SDS011;47692;53.714;11.372;2023-05-07T07:33:37;9.88;;;6.53;;
61785;SDS011;47692;53.714;11.372;2023-05-07T07:36:02;8.55;;;6.22;;
61785;SDS011;47692;53.714;11.372;2023-05-07T07:38:28;8.52;;;6.43;;
61785;SDS011;47692;53.714;11.372;2023-05-07T07:40:53;7.80;;;6.38;;
61785;SDS011;47692;53.714;11.372;2023-05-07T07:43:18;9.57;;;6.15;;
61785;SDS011;47692;53.714;11.372;2023-05-07T07:45:44;7.97;;;6.15;;
61785;SDS011;47692;53.714;11.372;2023-05-07T07:48:10;10.05;;;6.75;;
61785;SDS011;47692;53.714;11.372;2023-05-07T07:50:36;8.05;;;6.28;;
61785;SDS011;47692;53.714;11.372;2023-05-07T07:53:01;8.25;;;5.97;;
61785;SDS011;47692;53.714;11.372;2023-05-07T07:55:26;7.78;;;6.10;;
61785;SDS011;47692;53.714;11.372;2023-05-07T07:57:52;9.25;;;6.20;;
61785;SDS011;47692;53.714;11.372;2023-05-07T08:00:17;8.35;;;6.13;;
61785;SDS011;47692;53.714;11.372;2023-05-07T08:02:43;8.02;;;5.70;;
61785;SDS011;47692;53.714;11.372;2023-05-07T08:05:08;8.40;;;5.65;;
61785;SDS011;47692;53.714;11.372;2023-05-07T08:07:34;7.60;;;5.28;;
61785;SDS011;47692;53.714;11.372;2023-05-07T08:09:59;6.88;;;5.10;;
61785;SDS011;47692;53.714;11.372;2023-05-07T08:12:24;6.80;;;5.00;;
61785;SDS011;47692;53.714;11.372;2023-05-07T08:14:50;7.30;;;4.95;;
61785;SDS011;47692;53.714;11.372;2023-05-07T08:17:15;7.22;;;4.95;;
61785;SDS011;47692;53.714;11.372;2023-05-07T08:19:41;7.20;;;5.47;;
61785;SDS011;47692;53.714;11.372;2023-05-07T08:22:07;6.80;;;4.80;;
61785;SDS011;47692;53.714;11.372;2023-05-07T08:24:33;8.10;;;4.85;;
61785;SDS011;47692;53.714;11.372;2023-05-07T08:26:58;7.68;;;4.90;;
61785;SDS011;47692;53.714;11.372;2023-05-07T08:29:24;6.40;;;4.20;;
61785;SDS011;47692;53.714;11.372;2023-05-07T08:31:49;5.68;;;4.40;;
61785;SDS011;47692;53.714;11.372;2023-05-07T08:34:15;6.03;;;4.05;;
61785;SDS011;47692;53.714;11.372;2023-05-07T08:36:40;6.40;;;4.30;;
61785;SDS011;47692;53.714;11.372;2023-05-07T08:39:06;5.00;;;3.40;;
61785;SDS011;47692;53.714;11.372;2023-05-07T08:41:32;5.32;;;3.95;;
61785;SDS011;47692;53.714;11.372;2023-05-07T08:43:58;5.80;;;3.67;;
61785;SDS011;47692;53.714;11.372;2023-05-07T08:46:27;4.80;;;3.40;;
61785;SDS011;47692;53.714;11.372;2023-05-07T08:48:55;4.90;;;3.05;;
61785;SDS011;47692;53.714;11.372;2023-05-07T08:51:21;4.72;;;3.30;;
61785;SDS011;47692;53.714;11.372;2023-05-07T08:53:47;5.63;;;3.58;;
61785;SDS011;47692;53.714;11.372;2023-05-07T08:56:14;5.13;;;3.60;;
61785;SDS011;47692;53.714;11.372;2023-05-07T08:58:41;3.65;;;2.70;;
61785;SDS011;47692;53.714;11.372;2023-05-07T09:01:09;6.80;;;3.20;;
61785;SDS011;47692;53.714;11.372;2023-05-07T09:03:38;4.80;;;3.03;;
61785;SDS011;47692;53.714;11.372;2023-05-07T09:06:04;5.10;;;3.03;;
61785;SDS011;47692;53.714;11.372;2023-05-07T09:08:29;3.60;;;2.67;;
61785;SDS011;47692;53.714;11.372;2023-05-07T09:10:55;5.22;;;2.92;;
61785;SDS011;47692;53.714;11.372;2023-05-07T09:13:20;3.90;;;2.85;;
61785;SDS011;47692;53.714;11.372;2023-05-07T09:15:46;5.35;;;2.70;;
61785;SDS011;47692;53.714;11.372;2023-05-07T09:18:12;4.35;;;2.90;;
61785;SDS011;47692;53.714;11.372;2023-05-07T09:20:38;4.80;;;2.70;;
61785;SDS011;47692;53.714;11.372;2023-05-07T09:23:05;3.83;;;2.72;;
61785;SDS011;47692;53.714;11.372;2023-05-07T09:25:32;4.05;;;2.63;;
61785;SDS011;47692;53.714;11.372;2023-05-07T09:27:59;4.15;;;2.15;;
61785;SDS011;47692;53.714;11.372;2023-05-07T09:30:29;3.58;;;2.10;;
61785;SDS011;47692;53.714;11.372;2023-05-07T09:32:57;4.68;;;2.63;;
61785;SDS011;47692;53.714;11.372;2023-05-07T09:35:23;4.20;;;2.10;;
61785;SDS011;47692;53.714;11.372;2023-05-07T09:37:52;4.43;;;2.50;;
61785;SDS011;47692;53.714;11.372;2023-05-07T09:40:20;3.45;;;2.10;;
61785;SDS011;47692;53.714;11.372;2023-05-07T09:42:49;3.40;;;2.10;;
61785;SDS011;47692;53.714;11.372;2023-05-07T09:45:48;4.05;;;2.25;;
61785;SDS011;47692;53.714;11.372;2023-05-07T09:48:07;3.60;;;2.13;;
61785;SDS011;47692;53.714;11.372;2023-05-07T09:50:40;3.22;;;2.60;;
61785;SDS011;47692;53.714;11.372;2023-05-07T09:53:15;3.20;;;2.10;;
61785;SDS011;47692;53.714;11.372;2023-05-07T09:55:41;4.47;;;2.50;;
61785;SDS011;47692;53.714;11.372;2023-05-07T09:58:08;3.63;;;2.28;;
61785;SDS011;47692;53.714;11.372;2023-05-07T10:00:34;3.25;;;1.90;;
61785;SDS011;47692;53.714;11.372;2023-05-07T10:03:00;3.58;;;2.17;;
61785;SDS011;47692;53.714;11.372;2023-05-07T10:05:27;4.82;;;2.55;;
61785;SDS011;47692;53.714;11.372;2023-05-07T10:07:53;3.53;;;2.20;;
61785;SDS011;47692;53.714;11.372;2023-05-07T10:10:19;3.20;;;2.17;;
61785;SDS011;47692;53.714;11.372;2023-05-07T10:12:45;4.32;;;2.35;;
61785;SDS011;47692;53.714;11.372;2023-05-07T10:15:11;4.40;;;2.50;;
61785;SDS011;47692;53.714;11.372;2023-05-07T10:17:40;3.22;;;2.13;;
61785;SDS011;47692;53.714;11.372;2023-05-07T10:20:06;4.93;;;2.30;;
61785;SDS011;47692;53.714;11.372;2023-05-07T10:22:39;4.25;;;2.33;;
61785;SDS011;47692;53.714;11.372;2023-05-07T10:25:14;4.15;;;2.03;;
61785;SDS011;47692;53.714;11.372;2023-05-07T10:27:55;3.50;;;2.15;;
61785;SDS011;47692;53.714;11.372;2023-05-07T10:32:59;3.47;;;2.25;;
61785;SDS011;47692;53.714;11.372;2023-05-07T10:35:31;4.22;;;2.30;;
61785;SDS011;47692;53.714;11.372;2023-05-07T10:38:01;2.95;;;1.98;;
61785;SDS011;47692;53.714;11.372;2023-05-07T10:40:27;4.15;;;2.50;;
61785;SDS011;47692;53.714;11.372;2023-05-07T10:42:56;4.05;;;2.10;;
61785;SDS011;47692;53.714;11.372;2023-05-07T10:45:23;4.65;;;2.15;;
61785;SDS011;47692;53.714;11.372;2023-05-07T10:48:07;4.00;;;1.98;;
61785;SDS011;47692;53.714;11.372;2023-05-07T10:50:40;5.28;;;2.25;;
61785;SDS011;47692;53.714;11.372;2023-05-07T10:55:41;3.05;;;1.95;;
61785;SDS011;47692;53.714;11.372;2023-05-07T10:58:25;2.80;;;2.03;;
61785;SDS011;47692;53.714;11.372;2023-05-07T11:00:57;5.22;;;2.20;;
61785;SDS011;47692;53.714;11.372;2023-05-07T11:03:24;4.10;;;1.90;;
61785;SDS011;47692;53.714;11.372;2023-05-07T11:08:59;4.25;;;1.90;;
61785;SDS011;47692;53.714;11.372;2023-05-07T11:14:13;2.58;;;1.50;;
61785;SDS011;47692;53.714;11.372;2023-05-07T11:17:01;3.75;;;1.80;;
61785;SDS011;47692;53.714;11.372;2023-05-07T11:24:55;3.10;;;1.67;;
61785;SDS011;47692;53.714;11.372;2023-05-07T11:27:24;3.25;;;1.80;;
61785;SDS011;47692;53.714;11.372;2023-05-07T11:29:49;3.33;;;2.00;;
61785;SDS011;47692;53.714;11.372;2023-05-07T11:32:15;4.88;;;2.03;;
61785;SDS011;47692;53.714;11.372;2023-05-07T11:34:47;3.72;;;1.60;;
61785;SDS011;47692;53.714;11.372;2023-05-07T11:37:16;3.15;;;1.80;;
61785;SDS011;47692;53.714;11.372;2023-05-07T11:39:42;3.58;;;1.95;;
61785;SDS011;47692;53.714;11.372;2023-05-07T11:42:24;2.83;;;1.70;;
61785;SDS011;47692;53.714;11.372;2023-05-07T11:44:50;3.55;;;1.52;;
61785;SDS011;47692;53.714;11.372;2023-05-07T11:47:19;3.92;;;1.80;;
61785;SDS011;47692;53.714;11.372;2023-05-07T11:49:48;2.70;;;1.90;;
61785;SDS011;47692;53.714;11.372;2023-05-07T11:52:15;2.63;;;1.67;;
61785;SDS011;47692;53.714;11.372;2023-05-07T11:54:48;3.67;;;1.85;;
61785;SDS011;47692;53.714;11.372;2023-05-07T11:57:14;3.38;;;1.90;;
61785;SDS011;47692;53.714;11.372;2023-05-07T11:59:40;2.85;;;1.60;;
61785;SDS011;47692;53.714;11.372;2023-05-07T12:02:06;4.35;;;2.00;;
61785;SDS011;47692;53.714;11.372;2023-05-07T12:04:32;2.92;;;1.67;;
61785;SDS011;47692;53.714;11.372;2023-05-07T12:06:57;2.80;;;1.63;;
61785;SDS011;47692;53.714;11.372;2023-05-07T12:09:23;2.53;;;1.88;;
61785;SDS011;47692;53.714;11.372;2023-05-07T12:11:48;3.05;;;1.80;;
61785;SDS011;47692;53.714;11.372;2023-05-07T12:14:14;2.58;;;1.58;;
61785;SDS011;47692;53.714;11.372;2023-05-07T12:16:42;3.33;;;1.75;;
61785;SDS011;47692;53.714;11.372;2023-05-07T12:19:09;2.92;;;1.63;;
61785;SDS011;47692;53.714;11.372;2023-05-07T12:21:37;3.55;;;2.30;;
61785;SDS011;47692;53.714;11.372;2023-05-07T12:24:04;6.03;;;1.88;;
61785;SDS011;47692;53.714;11.372;2023-05-07T12:26:30;4.75;;;2.60;;
61785;SDS011;47692;53.714;11.372;2023-05-07T12:28:57;2.47;;;1.80;;
61785;SDS011;47692;53.714;11.372;2023-05-07T12:31:22;2.95;;;1.95;;
61785;SDS011;47692;53.714;11.372;2023-05-07T12:33:50;4.30;;;2.38;;
61785;SDS011;47692;53.714;11.372;2023-05-07T12:36:15;4.22;;;2.10;;
61785;SDS011;47692;53.714;11.372;2023-05-07T12:38:41;4.00;;;1.95;;
61785;SDS011;47692;53.714;11.372;2023-05-07T12:41:07;2.63;;;1.90;;
61785;SDS011;47692;53.714;11.372;2023-05-07T12:43:33;4.43;;;1.92;;
61785;SDS011;47692;53.714;11.372;2023-05-07T12:46:00;3.60;;;2.00;;
61785;SDS011;47692;53.714;11.372;2023-05-07T12:48:28;3.03;;;2.00;;
61785;SDS011;47692;53.714;11.372;2023-05-07T12:50:54;3.95;;;1.92;;
61785;SDS011;47692;53.714;11.372;2023-05-07T12:53:20;4.53;;;2.00;;
61785;SDS011;47692;53.714;11.372;2023-05-07T12:55:48;4.55;;;2.10;;
61785;SDS011;47692;53.714;11.372;2023-05-07T12:58:23;3.47;;;1.98;;
61785;SDS011;47692;53.714;11.372;2023-05-07T13:00:51;4.50;;;2.15;;
61785;SDS011;47692;53.714;11.372;2023-05-07T13:03:20;4.03;;;2.10;;
61785;SDS011;47692;53.714;11.372;2023-05-07T13:06:05;3.65;;;1.88;;
61785;SDS011;47692;53.714;11.372;2023-05-07T13:08:35;3.38;;;2.13;;
61785;SDS011;47692;53.714;11.372;2023-05-07T13:11:06;3.85;;;2.00;;
61785;SDS011;47692;53.714;11.372;2023-05-07T13:13:33;3.47;;;2.05;;
61785;SDS011;47692;53.714;11.372;2023-05-07T13:16:00;2.92;;;1.90;;
61785;SDS011;47692;53.714;11.372;2023-05-07T13:18:29;4.07;;;1.90;;
61785;SDS011;47692;53.714;11.372;2023-05-07T13:20:55;3.78;;;2.00;;
61785;SDS011;47692;53.714;11.372;2023-05-07T13:23:21;4.88;;;1.98;;
61785;SDS011;47692;53.714;11.372;2023-05-07T13:25:47;3.47;;;1.90;;
61785;SDS011;47692;53.714;11.372;2023-05-07T13:28:13;3.53;;;1.95;;
61785;SDS011;47692;53.714;11.372;2023-05-07T13:30:38;5.72;;;2.20;;
61785;SDS011;47692;53.714;11.372;2023-05-07T13:33:05;4.05;;;1.83;;
61785;SDS011;47692;53.714;11.372;2023-05-07T13:35:31;3.92;;;2.20;;
61785;SDS011;47692;53.714;11.372;2023-05-07T13:37:56;4.65;;;2.35;;
61785;SDS011;47692;53.714;11.372;2023-05-07T13:40:22;4.80;;;2.05;;
61785;SDS011;47692;53.714;11.372;2023-05-07T13:42:48;2.50;;;1.98;;
61785;SDS011;47692;53.714;11.372;2023-05-07T13:45:14;3.05;;;2.10;;
61785;SDS011;47692;53.714;11.372;2023-05-07T13:47:40;3.00;;;1.92;;
61785;SDS011;47692;53.714;11.372;2023-05-07T13:50:07;4.93;;;2.55;;
61785;SDS011;47692;53.714;11.372;2023-05-07T13:52:42;4.88;;;2.38;;
61785;SDS011;47692;53.714;11.372;2023-05-07T13:55:08;4.18;;;2.20;;
61785;SDS011;47692;53.714;11.372;2023-05-07T13:57:35;3.88;;;1.98;;
61785;SDS011;47692;53.714;11.372;2023-05-07T14:00:00;4.10;;;2.20;;
61785;SDS011;47692;53.714;11.372;2023-05-07T14:02:26;4.85;;;2.33;;
61785;SDS011;47692;53.714;11.372;2023-05-07T14:04:51;7.43;;;2.10;;
61785;SDS011;47692;53.714;11.372;2023-05-07T14:07:17;4.57;;;2.65;;
61785;SDS011;47692;53.714;11.372;2023-05-07T14:09:42;4.88;;;2.30;;
61785;SDS011;47692;53.714;11.372;2023-05-07T14:12:07;4.03;;;2.25;;
61785;SDS011;47692;53.714;11.372;2023-05-07T14:14:32;3.53;;;2.20;;
61785;SDS011;47692;53.714;11.372;2023-05-07T14:16:58;4.63;;;2.40;;
61785;SDS011;47692;53.714;11.372;2023-05-07T14:19:23;2.78;;;2.15;;
61785;SDS011;47692;53.714;11.372;2023-05-07T14:21:48;4.55;;;2.28;;
61785;SDS011;47692;53.714;11.372;2023-05-07T14:24:14;2.58;;;1.90;;
61785;SDS011;47692;53.714;11.372;2023-05-07T14:26:39;5.15;;;3.03;;
61785;SDS011;47692;53.714;11.372;2023-05-07T14:29:05;3.88;;;2.20;;
61785;SDS011;47692;53.714;11.372;2023-05-07T14:31:30;3.95;;;2.40;;
61785;SDS011;47692;53.714;11.372;2023-05-07T14:33:55;3.72;;;2.22;;
61785;SDS011;47692;53.714;11.372;2023-05-07T14:36:23;4.47;;;2.25;;
61785;SDS011;47692;53.714;11.372;2023-05-07T14:38:50;3.35;;;2.17;;
61785;SDS011;47692;53.714;11.372;2023-05-07T14:41:16;5.53;;;2.20;;
61785;SDS011;47692;53.714;11.372;2023-05-07T14:43:41;4.50;;;2.40;;